Disclaimer

Please do not use the information listed here in-flight or in-navigation, as they are not provided to us by the airports but are provided by volunteers, so they might be outdated.

Search


Regions


Airport information page

Radio informations:
Tower (TWR) - 121.0 MHz
Ground (GND) - 121.9 MHz
FIRE - 121.9 MHz
Approach (APP) - 121.0 MHz

Airport informations:
Latitude: 25° 33' 25.60" N
Longitude: 034° 35' 01.36" E
Elevation: 251 feet - 77 meters
Operating hours: 24 hour operations
Operating agency: Civil government, landing fees and diplomatic clearance may be required
Timezone: UTC+2(+3DT)
Fuel: Jet A1, without icing nhibitor.

Aviation Gasoline (AVGAS), octane unknown.

Runway information:
15/33 - 9843 x 148 feet< - >3000 x 45 meters

Recent METARs:
HEMA 131900Z 24004KT CAVOK 21/14 Q1012 NOSIG
HEMA 131900Z 24004KT CAVOK 21/14 Q1012 NOSIG
HEMA 132000Z 26006KT CAVOK 21/14 Q1012 NOSIG

Airport on the map: